Time;durP1;ratioP1;P1;durP2;ratioP2;P2;SDS_P1;SDS_P2;PMS_P1;PMS_P2;Temp;Humidity;BMP_temperature;BMP_pressure;BME280_temperature;BME280_humidity;BME280_pressure;Samples;Min_cycle;Max_cycle;Signal;HPM_P1;HPM_P2
2023/02/19 00:01:15;;;;;;;10.20;5.75;;;9.20;99.90;;;;;;5028170;28;20033;-76
2023/02/19 00:03:41;;;;;;;9.50;5.25;;;9.20;99.90;;;;;;5028038;28;20726;-76
2023/02/19 00:06:10;;;;;;;9.05;5.07;;;9.10;99.90;;;;;;5027969;28;20029;-77
2023/02/19 00:08:37;;;;;;;8.85;4.50;;;9.10;99.90;;;;;;5010201;28;20506;-77
2023/02/19 00:11:07;;;;;;;8.60;4.45;;;9.10;99.90;;;;;;5010142;28;20553;-76
2023/02/19 00:13:38;;;;;;;11.57;4.50;;;9.10;99.90;;;;;;5028017;28;20029;-76
2023/02/19 00:16:09;;;;;;;9.18;5.10;;;9.20;99.90;;;;;;5009894;28;20065;-76
2023/02/19 00:18:35;;;;;;;8.05;4.45;;;9.20;99.90;;;;;;5029848;28;20037;-76
2023/02/19 00:21:00;;;;;;;;;;;9.10;99.90;;;;;;5014287;28;20075;-76
2023/02/19 00:23:26;;;;;;;6.25;3.33;;;9.20;99.90;;;;;;5030438;28;19941;-76
2023/02/19 00:25:53;;;;;;;7.13;3.78;;;9.20;99.90;;;;;;5031426;28;20103;-76
2023/02/19 00:28:19;;;;;;;7.22;3.42;;;9.20;99.90;;;;;;5013360;28;20119;-75
2023/02/19 00:30:44;;;;;;;;;;;9.20;99.90;;;;;;5031721;28;20097;-76
2023/02/19 00:33:10;;;;;;;5.20;3.20;;;9.20;99.90;;;;;;5031175;28;20322;-77
2023/02/19 00:35:35;;;;;;;;;;;9.30;99.90;;;;;;5050378;28;20520;-76
2023/02/19 00:38:02;;;;;;;4.63;2.67;;;9.30;99.90;;;;;;5051074;28;19913;-76
2023/02/19 00:40:28;;;;;;;3.90;1.90;;;9.30;99.90;;;;;;5050881;28;20155;-77
2023/02/19 00:42:54;;;;;;;;;;;9.30;99.90;;;;;;5051601;28;20127;-76
2023/02/19 00:45:20;;;;;;;3.65;1.83;;;9.20;99.90;;;;;;5050923;28;19908;-76
2023/02/19 00:47:46;;;;;;;3.05;1.58;;;9.20;99.90;;;;;;5051133;28;20069;-76
2023/02/19 00:50:12;;;;;;;;;;;9.10;99.90;;;;;;5033582;28;20477;-76
2023/02/19 00:52:37;;;;;;;3.75;1.70;;;9.10;99.90;;;;;;5049768;28;19908;-76
2023/02/19 00:55:03;;;;;;;;;;;9.10;99.90;;;;;;5033521;28;20025;-76
2023/02/19 00:57:28;;;;;;;3.25;1.83;;;9.00;99.90;;;;;;5049401;28;19917;-76
2023/02/19 00:59:54;;;;;;;;;;;9.00;99.90;;;;;;5051194;28;20107;-77
2023/02/19 01:02:20;;;;;;;5.47;2.05;;;9.00;99.90;;;;;;5049419;28;19967;-76
2023/02/19 01:04:45;;;;;;;;;;;9.00;99.90;;;;;;5050845;28;20106;-76
2023/02/19 01:07:11;;;;;;;6.32;2.38;;;8.90;99.90;;;;;;5050601;28;20340;-76
2023/02/19 01:09:37;;;;;;;;;;;8.90;99.90;;;;;;5051056;28;20064;-76
2023/02/19 01:12:04;;;;;;;5.05;2.47;;;8.90;99.90;;;;;;5032528;28;19974;-76
2023/02/19 01:14:30;;;;;;;4.32;2.15;;;8.90;99.90;;;;;;5050224;28;20505;-76
2023/02/19 01:16:55;;;;;;;;;;;8.90;99.90;;;;;;5050943;28;20039;-76
2023/02/19 01:19:21;;;;;;;7.70;2.35;;;8.90;99.90;;;;;;5050184;28;19909;-76
2023/02/19 01:21:46;;;;;;;;;;;8.90;99.90;;;;;;5050913;28;20044;-76
2023/02/19 01:24:12;;;;;;;5.50;2.58;;;8.90;99.90;;;;;;5050194;28;19991;-76
2023/02/19 01:26:37;;;;;;;;;;;8.80;99.90;;;;;;5050772;28;20127;-77
2023/02/19 01:29:03;;;;;;;4.35;2.53;;;8.80;99.90;;;;;;5049279;28;20305;-76
2023/02/19 01:31:29;;;;;;;;;;;8.80;99.90;;;;;;5032606;28;20040;-76
2023/02/19 01:34:00;;;;;;;6.20;2.92;;;8.80;99.90;;;;;;5049693;28;19917;-75
2023/02/19 01:36:27;;;;;;;5.25;2.00;;;8.80;99.90;;;;;;5032211;28;20037;-76
2023/02/19 01:38:54;;;;;;;3.80;1.67;;;8.80;99.90;;;;;;5032391;28;20071;-76
2023/02/19 01:41:22;;;;;;;5.65;2.25;;;8.80;99.90;;;;;;5049985;28;20104;-76
2023/02/19 01:44:06;;;;;;;3.00;1.30;;;8.80;99.90;;;;;;5049839;28;20091;-76
2023/02/19 01:46:38;;;;;;;4.03;1.20;;;8.90;99.90;;;;;;5049664;28;20110;-76
2023/02/19 01:49:16;;;;;;;3.58;1.40;;;8.80;99.90;;;;;;5031830;28;20512;-76
2023/02/19 01:51:52;;;;;;;3.17;1.58;;;8.80;99.90;;;;;;5049549;28;20482;-76
2023/02/19 01:54:21;;;;;;;3.28;1.42;;;8.80;99.90;;;;;;5031573;28;20033;-76
2023/02/19 01:56:48;;;;;;;3.25;1.13;;;8.80;99.90;;;;;;5031513;28;20044;-77
2023/02/19 01:59:15;;;;;;;3.10;1.30;;;8.70;99.90;;;;;;5031923;28;20174;-76
2023/02/19 02:01:41;;;;;;;2.95;1.40;;;8.60;99.90;;;;;;5049648;28;20029;-75
2023/02/19 02:04:07;;;;;;;;;;;8.60;99.90;;;;;;5049945;28;20023;-76
2023/02/19 02:06:56;;;;;;;3.13;1.17;;;8.50;99.90;;;;;;5031211;28;19908;-76
2023/02/19 02:12:11;;;;;;;2.15;1.10;;;8.30;99.90;;;;;;5049579;28;20461;-77
2023/02/19 02:14:42;;;;;;;2.25;1.10;;;8.30;99.90;;;;;;5049087;28;20057;-76
2023/02/19 02:17:29;;;;;;;2.97;1.23;;;8.30;99.90;;;;;;5031145;28;20398;-77
2023/02/19 02:20:13;;;;;;;2.80;1.17;;;8.30;99.90;;;;;;5031194;28;20029;-76
2023/02/19 02:22:56;;;;;;;2.35;0.75;;;8.20;99.90;;;;;;5031017;28;20048;-76
2023/02/19 02:25:44;;;;;;;3.17;1.52;;;8.10;99.90;;;;;;5031035;28;20277;-77
2023/02/19 02:28:31;;;;;;;3.78;1.55;;;8.00;99.90;;;;;;5031314;28;20060;-78
2023/02/19 02:31:18;;;;;;;2.88;1.10;;;8.00;99.90;;;;;;5031110;28;20036;-76
2023/02/19 02:33:53;;;;;;;5.35;1.33;;;8.00;99.90;;;;;;5031020;28;20053;-76
2023/02/19 02:36:31;;;;;;;3.58;1.20;;;8.00;99.90;;;;;;5048792;28;20539;-75
2023/02/19 02:38:59;;;;;;;2.17;0.98;;;8.00;99.90;;;;;;5030762;28;20493;-76
2023/02/19 02:41:25;;;;;;;12.35;1.33;;;8.00;99.90;;;;;;5048623;28;20028;-78
2023/02/19 02:43:50;;;;;;;;;;;8.10;99.90;;;;;;5048943;28;20025;-76
2023/02/19 02:46:25;;;;;;;8.20;2.08;;;8.10;99.90;;;;;;5047393;28;20506;-76
2023/02/19 02:48:54;;;;;;;1.92;0.65;;;8.10;99.90;;;;;;5048781;28;20021;-76
2023/02/19 02:51:23;;;;;;;2.40;0.70;;;8.10;99.90;;;;;;5048741;28;20074;-76
2023/02/19 02:56:41;;;;;;;1.75;0.95;;;8.20;99.90;;;;;;5048701;28;20435;-76
2023/02/19 02:59:09;;;;;;;6.25;1.40;;;8.30;99.90;;;;;;5030865;28;20035;-76
2023/02/19 03:05:50;;;;;;;1.13;0.40;;;8.40;99.90;;;;;;5048426;28;20078;-75
2023/02/19 03:07:25;;;;;;;7.45;1.60;;;8.40;99.90;;;;;;5048215;28;20032;-76
2023/02/19 03:09:52;;;;;;;6.20;1.45;;;8.40;99.90;;;;;;5048333;28;20016;-76
2023/02/19 03:20:49;;;;;;;3.40;1.27;;;8.30;99.90;;;;;;5048369;28;20040;-76
2023/02/19 03:23:18;;;;;;;2.30;0.95;;;8.30;99.90;;;;;;5030449;28;20025;-76
2023/02/19 03:26:02;;;;;;;4.28;1.13;;;8.30;99.90;;;;;;5030191;28;20025;-75
2023/02/19 03:31:18;;;;;;;6.45;2.38;;;8.00;99.90;;;;;;5048129;28;20405;-76
2023/02/19 03:33:48;;;;;;;5.80;2.20;;;7.90;99.90;;;;;;5048113;28;20175;-76
2023/02/19 03:36:14;;;;;;;3.92;1.40;;;7.90;99.90;;;;;;5048405;28;20044;-76
2023/02/19 03:38:56;;;;;;;;;;;7.80;99.90;;;;;;5048715;28;20032;-77
2023/02/19 03:41:47;;;;;;;3.60;1.15;;;7.80;99.90;;;;;;5048178;28;19909;-76
2023/02/19 03:44:36;;;;;;;14.20;3.72;;;7.70;99.90;;;;;;5048191;28;20040;-76
2023/02/19 03:47:26;;;;;;;1.92;0.70;;;7.70;99.90;;;;;;5048026;28;20033;-77
2023/02/19 03:50:00;;;;;;;11.27;2.85;;;7.60;99.90;;;;;;5048074;28;20568;-76
2023/02/19 03:52:54;;;;;;;2.83;1.10;;;7.60;99.90;;;;;;5048339;28;20545;-76
2023/02/19 03:55:30;;;;;;;1.80;0.70;;;7.50;99.90;;;;;;5051919;28;20029;-76
2023/02/19 03:58:02;;;;;;;;;;;7.50;99.90;;;;;;5052374;28;20041;-76
2023/02/19 04:01:12;;;;;;;1.60;0.65;;;7.50;99.90;;;;;;5051807;28;19916;-76
2023/02/19 04:04:21;;;;;;;3.05;0.75;;;7.60;99.90;;;;;;4989854;28;20030;-76
2023/02/19 04:06:52;;;;;;;3.20;0.95;;;7.70;99.90;;;;;;4989826;28;20034;-77
2023/02/19 04:09:20;;;;;;;7.20;1.13;;;7.80;99.90;;;;;;4989845;28;20030;-76
2023/02/19 04:11:48;;;;;;;11.80;2.70;;;7.90;99.90;;;;;;5024227;28;20037;-76
2023/02/19 04:14:25;;;;;;;8.95;2.30;;;8.00;99.90;;;;;;5051565;28;20036;-76
2023/02/19 04:17:02;;;;;;;5.72;1.55;;;8.10;99.90;;;;;;5051572;28;20048;-76
2023/02/19 04:19:31;;;;;;;7.25;1.98;;;8.20;99.90;;;;;;5033699;28;20509;-76
2023/02/19 04:21:59;;;;;;;8.45;2.58;;;8.20;99.90;;;;;;5051310;28;20100;-75
2023/02/19 04:24:39;;;;;;;11.70;2.75;;;8.20;99.90;;;;;;5051143;28;20028;-76
2023/02/19 04:27:06;;;;;;;8.65;2.33;;;8.20;99.90;;;;;;5050130;28;20029;-76
2023/02/19 04:29:31;;;;;;;14.15;3.55;;;8.20;99.90;;;;;;5051632;28;20021;-74
2023/02/19 04:31:57;;;;;;;;;;;8.20;99.90;;;;;;5050677;28;20044;-76
2023/02/19 04:34:22;;;;;;;4.00;1.25;;;8.20;99.90;;;;;;5024060;28;19920;-76
2023/02/19 04:36:48;;;;;;;;;;;8.20;99.90;;;;;;5013981;28;20528;-76
2023/02/19 04:39:13;;;;;;;4.55;1.60;;;8.10;99.90;;;;;;5031307;28;20274;-76
2023/02/19 04:41:39;;;;;;;;;;;8.10;99.90;;;;;;5031714;28;20398;-76
2023/02/19 04:44:05;;;;;;;4.05;1.13;;;8.10;99.90;;;;;;5031211;28;20020;-76
2023/02/19 04:46:30;;;;;;;;;;;8.10;99.90;;;;;;5031408;28;20132;-78
2023/02/19 04:48:56;;;;;;;3.13;1.17;;;8.10;99.90;;;;;;5029727;28;20258;-76
2023/02/19 04:51:22;;;;;;;;;;;8.20;99.90;;;;;;5031433;28;20053;-76
2023/02/19 04:53:47;;;;;;;4.88;1.30;;;8.20;99.90;;;;;;5013234;28;20015;-76
2023/02/19 04:56:15;;;;;;;;;;;8.30;99.90;;;;;;5013605;28;20037;-76
2023/02/19 04:58:40;;;;;;;3.38;1.15;;;8.30;99.90;;;;;;5030792;28;19905;-76
2023/02/19 05:01:07;;;;;;;;;;;8.30;99.90;;;;;;5031363;28;20586;-76
2023/02/19 05:03:34;;;;;;;4.03;1.23;;;8.30;99.90;;;;;;5029445;28;19916;-75
2023/02/19 05:06:09;;;;;;;3.33;1.25;;;8.30;99.90;;;;;;5030677;28;20390;-76
2023/02/19 05:08:35;;;;;;;3.65;0.82;;;8.40;99.90;;;;;;5030674;28;20058;-77
2023/02/19 05:11:03;;;;;;;3.42;1.17;;;8.30;99.90;;;;;;5012740;28;20036;-76
2023/02/19 05:13:29;;;;;;;4.45;0.80;;;8.30;99.90;;;;;;5029509;28;20038;-76
2023/02/19 05:16:12;;;;;;;3.20;0.98;;;8.30;99.90;;;;;;5012624;28;20026;-77
2023/02/19 05:18:39;;;;;;;2.00;1.02;;;8.50;99.90;;;;;;5030508;28;20458;-76
2023/02/19 05:21:05;;;;;;;2.40;0.80;;;8.50;99.90;;;;;;5030340;28;20025;-76
2023/02/19 05:23:31;;;;;;;3.10;1.45;;;8.50;99.90;;;;;;5012657;28;20044;-76
2023/02/19 05:25:56;;;;;;;;;;;8.50;99.90;;;;;;5030903;28;20033;-77
2023/02/19 05:28:27;;;;;;;7.20;1.75;;;8.60;99.90;;;;;;5012139;28;20015;-76
2023/02/19 05:30:54;;;;;;;2.03;0.90;;;8.60;99.90;;;;;;5012508;28;20119;-77
2023/02/19 05:33:24;;;;;;;2.83;0.90;;;8.50;99.90;;;;;;5012131;28;20053;-75
2023/02/19 05:35:54;;;;;;;4.22;1.70;;;8.60;99.90;;;;;;5050005;28;20029;-76
2023/02/19 05:38:21;;;;;;;5.25;2.15;;;8.60;99.90;;;;;;5048102;28;20045;-76
2023/02/19 05:40:47;;;;;;;5.35;1.67;;;8.60;99.90;;;;;;5031801;28;20398;-76
2023/02/19 05:43:12;;;;;;;;;;;8.70;99.90;;;;;;5050213;28;20024;-77
2023/02/19 05:45:39;;;;;;;3.28;0.90;;;8.70;99.90;;;;;;5049748;28;19936;-76
2023/02/19 05:48:05;;;;;;;3.35;0.90;;;8.90;99.90;;;;;;5031878;28;20115;-76
2023/02/19 05:50:33;;;;;;;3.47;1.00;;;8.90;99.90;;;;;;5049582;28;20029;-77
2023/02/19 05:53:00;;;;;;;3.08;0.95;;;8.90;99.90;;;;;;5049387;28;20070;-75
2023/02/19 05:55:26;;;;;;;3.60;1.33;;;9.00;99.90;;;;;;5049663;28;20033;-76
2023/02/19 05:57:52;;;;;;;5.57;1.10;;;9.00;99.90;;;;;;5049075;28;20569;-74
2023/02/19 06:00:18;;;;;;;;;;;8.90;99.90;;;;;;5049833;28;20029;-76
2023/02/19 06:02:45;;;;;;;3.88;1.00;;;9.00;99.90;;;;;;5049586;28;19912;-76
2023/02/19 06:05:12;;;;;;;3.90;0.90;;;8.90;99.90;;;;;;5031293;28;20417;-76
2023/02/19 06:07:38;;;;;;;3.72;1.30;;;8.90;99.90;;;;;;5049213;28;20052;-75
2023/02/19 06:10:09;;;;;;;1.88;0.70;;;8.90;99.90;;;;;;5049362;28;20030;-76
2023/02/19 06:12:35;;;;;;;2.95;0.70;;;8.90;99.90;;;;;;5049175;28;20032;-76
2023/02/19 06:15:01;;;;;;;;;;;8.90;99.90;;;;;;5049133;28;20417;-76
2023/02/19 06:17:26;;;;;;;2.10;0.60;;;8.90;99.90;;;;;;5048987;28;19912;-76
2023/02/19 06:19:52;;;;;;;;;;;8.90;99.90;;;;;;5049655;28;20033;-76
2023/02/19 06:22:17;;;;;;;1.77;0.60;;;8.90;99.90;;;;;;5048790;28;19909;-76
2023/02/19 06:24:43;;;;;;;;;;;8.90;99.90;;;;;;5031250;28;20029;-77
2023/02/19 06:27:09;;;;;;;4.72;1.80;;;8.90;99.90;;;;;;5049110;28;20292;-76
2023/02/19 06:29:37;;;;;;;2.55;1.20;;;8.80;99.90;;;;;;5049005;28;20219;-76
2023/02/19 06:32:04;;;;;;;1.98;1.00;;;8.80;99.90;;;;;;5048738;28;20037;-76
2023/02/19 06:34:30;;;;;;;2.72;1.17;;;8.80;99.90;;;;;;5048215;28;20056;-76
2023/02/19 06:36:55;;;;;;;;;;;8.70;99.90;;;;;;5049250;28;20386;-76
2023/02/19 06:39:21;;;;;;;3.50;1.38;;;8.70;99.90;;;;;;5048610;28;19905;-76
2023/02/19 06:41:47;;;;;;;;;;;8.70;99.90;;;;;;5049116;28;20029;-76
2023/02/19 06:44:12;;;;;;;1.88;0.80;;;8.70;99.90;;;;;;5048701;28;19912;-76
2023/02/19 06:46:38;;;;;;;;;;;8.70;99.90;;;;;;5047644;28;20033;-76
2023/02/19 06:49:04;;;;;;;1.55;0.80;;;8.70;99.90;;;;;;5048358;28;19904;-76
2023/02/19 06:51:31;;;;;;;2.40;1.10;;;8.70;99.90;;;;;;5048724;28;20044;-76
2023/02/19 06:53:57;;;;;;;2.92;1.10;;;8.80;99.90;;;;;;5048447;28;20436;-77
2023/02/19 06:56:26;;;;;;;2.17;1.00;;;8.90;99.90;;;;;;5047874;28;20630;-75
2023/02/19 06:58:58;;;;;;;2.03;0.98;;;9.00;99.90;;;;;;5048538;28;20068;-76
2023/02/19 07:01:24;;;;;;;2.95;1.10;;;9.00;99.90;;;;;;5048476;28;20103;-76
2023/02/19 07:03:51;;;;;;;;;;;9.10;99.90;;;;;;5048614;28;20174;-76
2023/02/19 07:06:17;;;;;;;3.88;1.63;;;9.20;99.90;;;;;;5030422;28;19927;-75
2023/02/19 07:08:43;;;;;;;1.88;1.00;;;9.20;99.90;;;;;;5048291;28;20082;-77
2023/02/19 07:11:09;;;;;;;;;;;9.20;99.90;;;;;;5048780;28;20144;-76
2023/02/19 07:13:35;;;;;;;2.20;1.25;;;9.20;99.90;;;;;;5030425;28;20380;-76
2023/02/19 07:16:04;;;;;;;3.83;1.55;;;9.20;99.90;;;;;;5030217;28;20683;-75
2023/02/19 07:18:30;;;;;;;4.05;1.52;;;9.10;99.90;;;;;;5030354;28;20060;-75
2023/02/19 07:21:03;;;;;;;3.33;1.60;;;9.20;99.90;;;;;;5030271;28;20031;-76
2023/02/19 07:23:29;;;;;;;3.97;1.50;;;9.10;99.90;;;;;;5030308;28;20553;-75
2023/02/19 07:25:55;;;;;;;;;;;9.20;99.90;;;;;;5048723;28;20405;-75
2023/02/19 07:28:20;;;;;;;3.75;1.75;;;9.10;99.90;;;;;;5032224;28;20455;-76
2023/02/19 07:30:46;;;;;;;;;;;9.10;99.90;;;;;;5052871;28;20017;-76
2023/02/19 07:33:12;;;;;;;2.58;1.23;;;9.10;99.90;;;;;;5052273;28;19994;-76
2023/02/19 07:35:37;;;;;;;;;;;9.00;99.90;;;;;;5034514;28;20048;-76
2023/02/19 07:38:03;;;;;;;3.80;1.77;;;9.00;99.90;;;;;;5033746;28;20385;-75
2023/02/19 07:40:28;;;;;;;;;;;9.00;99.90;;;;;;5052413;28;20538;-75
2023/02/19 07:42:54;;;;;;;3.67;1.42;;;9.10;99.90;;;;;;5052195;28;19930;-76
2023/02/19 07:45:19;;;;;;;;;;;9.10;99.90;;;;;;5052596;28;20029;-75
2023/02/19 07:47:45;;;;;;;2.35;0.93;;;9.20;99.90;;;;;;5034122;28;19963;-75
2023/02/19 07:50:11;;;;;;;;;;;9.20;99.90;;;;;;5052129;28;20037;-75
2023/02/19 07:52:36;;;;;;;1.83;0.90;;;9.20;99.90;;;;;;5051769;28;20401;-77
2023/02/19 07:55:02;;;;;;;;;;;9.20;99.90;;;;;;5052388;28;20021;-75
2023/02/19 07:57:28;;;;;;;3.15;1.30;;;9.20;99.90;;;;;;5050840;28;19917;-75
2023/02/19 07:59:54;;;;;;;42.72;21.20;;;9.30;99.90;;;;;;5051961;28;20025;-75
2023/02/19 08:05:05;;;;;;;6.47;3.05;;;9.40;99.90;;;;;;5051913;28;20000;-76
2023/02/19 08:07:35;;;;;;;8.57;4.43;;;9.50;99.90;;;;;;5051369;28;20450;-75
2023/02/19 08:15:49;;;;;;;18.02;7.43;;;9.70;99.90;;;;;;5051753;28;20566;-75
2023/02/19 08:18:15;;;;;;;15.52;7.32;;;9.80;99.90;;;;;;5033385;28;20032;-75
2023/02/19 08:20:41;;;;;;;10.15;3.80;;;9.80;99.90;;;;;;5033482;28;20120;-75
2023/02/19 08:23:07;;;;;;;;;;;10.00;99.90;;;;;;5034093;28;20132;-76
2023/02/19 08:25:33;;;;;;;10.65;4.28;;;10.00;99.90;;;;;;5051353;28;19916;-75
2023/02/19 08:27:59;;;;;;;14.27;6.55;;;10.00;99.90;;;;;;5033785;28;20441;-76
2023/02/19 08:30:25;;;;;;;;;;;10.20;99.90;;;;;;5051654;28;20100;-74
2023/02/19 08:32:51;;;;;;;15.35;6.53;;;10.30;99.90;;;;;;5051000;28;19912;-76
2023/02/19 08:35:16;;;;;;;;;;;10.40;99.90;;;;;;5051539;28;20512;-76
2023/02/19 08:37:42;;;;;;;12.10;3.60;;;10.50;99.90;;;;;;5050757;28;19966;-75
2023/02/19 08:40:08;;;;;;;;;;;10.60;99.90;;;;;;5051239;28;20032;-75
2023/02/19 08:42:33;;;;;;;18.58;5.75;;;10.70;99.90;;;;;;5032251;28;19905;-76
2023/02/19 08:44:59;;;;;;;;;;;10.80;99.90;;;;;;5051513;28;20079;-75
2023/02/19 08:47:25;;;;;;;17.15;7.28;;;10.90;99.90;;;;;;5049846;28;19911;-75
2023/02/19 08:49:50;;;;;;;;;;;11.00;99.90;;;;;;5033200;28;20021;-76
2023/02/19 08:52:16;;;;;;;10.07;3.85;;;11.10;99.90;;;;;;5050894;28;20446;-75
2023/02/19 08:54:41;;;;;;;;;;;11.20;99.90;;;;;;5049781;28;20033;-75
2023/02/19 08:57:07;;;;;;;11.52;3.53;;;11.30;99.90;;;;;;5049443;28;19909;-75
2023/02/19 08:59:32;;;;;;;;;;;11.40;99.90;;;;;;5051055;28;20104;-75
2023/02/19 09:01:58;;;;;;;9.20;2.95;;;11.40;99.90;;;;;;5049187;28;19940;-75
2023/02/19 09:04:24;;;;;;;;;;;11.50;99.90;;;;;;5049522;28;20115;-77
2023/02/19 09:06:50;;;;;;;12.27;4.57;;;11.60;99.90;;;;;;5049130;28;19915;-75
2023/02/19 09:09:15;;;;;;;;;;;11.70;99.90;;;;;;5050650;28;20044;-76
2023/02/19 09:11:41;;;;;;;18.20;6.70;;;11.80;99.90;;;;;;5049322;28;19930;-75
2023/02/19 09:14:07;;;;;;;;;;;11.90;99.90;;;;;;5032924;28;20025;-75
2023/02/19 09:16:33;;;;;;;22.42;7.72;;;11.90;99.90;;;;;;5050197;28;19954;-75
2023/02/19 09:18:59;;;;;;;8.13;3.08;;;12.00;99.90;;;;;;5050281;28;20108;-76
2023/02/19 09:21:24;;;;;;;;;;;12.10;99.90;;;;;;5050725;28;20562;-75
2023/02/19 09:23:50;;;;;;;19.15;6.20;;;12.30;99.90;;;;;;5050375;28;20384;-75
2023/02/19 09:26:16;;;;;;;;;;;12.40;99.90;;;;;;5050403;28;20056;-75
2023/02/19 09:28:42;;;;;;;13.93;5.53;;;12.60;99.90;;;;;;5048733;28;20704;-75
2023/02/19 09:31:09;;;;;;;;;;;13.00;99.90;;;;;;5050359;28;20490;-75
2023/02/19 09:33:35;;;;;;;9.48;1.83;;;13.60;99.90;;;;;;5031996;28;19905;-75
2023/02/19 09:36:01;;;;;;;;;;;14.30;99.90;;;;;;5050456;28;20122;-76
2023/02/19 09:38:29;;;;;;;8.63;2.10;;;15.00;99.90;;;;;;5031923;28;20003;-76
2023/02/19 09:40:56;;;;;;;8.20;2.17;;;15.40;99.90;;;;;;5032026;28;20025;-76
2023/02/19 09:43:25;;;;;;;6.60;1.27;;;15.50;99.90;;;;;;5049926;28;20033;-76
2023/02/19 09:46:05;;;;;;;3.90;1.50;;;15.50;99.90;;;;;;5031964;28;20029;-76
2023/02/19 09:48:31;;;;;;;4.28;1.25;;;15.20;99.90;;;;;;5049694;28;20151;-76
2023/02/19 09:51:00;;;;;;;4.10;1.30;;;14.70;99.90;;;;;;5047836;28;20060;-75
2023/02/19 09:53:33;;;;;;;5.30;1.60;;;14.30;99.90;;;;;;5031928;28;20037;-75
2023/02/19 09:56:00;;;;;;;4.18;1.23;;;14.10;99.90;;;;;;5031806;28;20029;-75
2023/02/19 09:58:39;;;;;;;7.80;2.80;;;13.90;99.90;;;;;;5031073;28;20123;-75
2023/02/19 10:01:09;;;;;;;3.92;0.88;;;13.50;99.90;;;;;;5049553;28;20106;-76
2023/02/19 10:03:40;;;;;;;3.28;0.85;;;13.30;99.90;;;;;;5049089;28;20107;-77
2023/02/19 10:06:28;;;;;;;7.15;1.98;;;13.40;99.90;;;;;;5031408;28;20064;-75
2023/02/19 10:09:25;;;;;;;12.52;3.35;;;13.20;99.90;;;;;;5031585;28;20029;-74
2023/02/19 10:11:54;;;;;;;8.45;2.55;;;13.00;99.90;;;;;;5030928;28;20115;-76
2023/02/19 10:14:43;;;;;;;5.40;1.73;;;12.90;99.90;;;;;;5048831;28;20489;-75
2023/02/19 10:17:23;;;;;;;7.53;1.75;;;12.60;99.90;;;;;;5048616;28;20033;-75
2023/02/19 10:19:50;;;;;;;6.38;2.30;;;12.20;99.90;;;;;;5042269;28;20817;-75
2023/02/19 10:22:16;;;;;;;10.07;1.98;;;11.90;99.90;;;;;;5031317;28;20033;-75
2023/02/19 10:24:43;;;;;;;10.73;2.42;;;11.60;99.90;;;;;;5031176;28;20566;-75
2023/02/19 10:27:13;;;;;;;6.40;1.58;;;11.30;99.90;;;;;;5049056;28;20610;-75
2023/02/19 10:29:39;;;;;;;19.20;5.78;;;11.00;99.90;;;;;;5049020;28;20033;-75
2023/02/19 10:32:11;;;;;;;;;;;10.90;99.90;;;;;;5031076;28;20036;-75
2023/02/19 10:34:37;;;;;;;20.65;6.75;;;10.70;99.90;;;;;;5048584;28;19947;-75
2023/02/19 10:37:12;;;;;;;12.07;3.55;;;10.60;99.90;;;;;;5048050;28;20132;-75
2023/02/19 10:39:41;;;;;;;6.43;2.13;;;10.60;99.90;;;;;;5049002;28;20116;-75
2023/02/19 10:42:20;;;;;;;20.13;6.50;;;10.60;99.90;;;;;;5030869;28;20025;-75
2023/02/19 10:44:57;;;;;;;28.08;8.57;;;10.60;99.90;;;;;;5048540;28;20033;-75
2023/02/19 10:47:25;;;;;;;11.18;3.75;;;10.50;99.90;;;;;;5048532;28;20052;-76
2023/02/19 10:49:53;;;;;;;9.13;3.03;;;10.40;99.90;;;;;;5046715;28;20036;-75
2023/02/19 10:52:27;;;;;;;17.42;4.30;;;10.50;99.90;;;;;;5029919;28;20029;-75
2023/02/19 10:55:22;;;;;;;12.05;3.25;;;10.60;99.90;;;;;;5048452;28;20033;-76
2023/02/19 10:57:49;;;;;;;3.60;1.67;;;10.80;99.90;;;;;;5042601;28;20048;-76
2023/02/19 11:00:29;;;;;;;7.53;2.42;;;11.00;99.90;;;;;;5030533;28;20446;-75
2023/02/19 11:03:13;;;;;;;6.40;2.30;;;11.30;99.90;;;;;;5048247;28;20078;-76
2023/02/19 11:06:00;;;;;;;9.85;3.80;;;11.70;99.90;;;;;;5048207;28;20052;-75
2023/02/19 11:08:26;;;;;;;5.90;2.88;;;12.10;99.90;;;;;;5044953;28;20036;-75
2023/02/19 11:10:52;;;;;;;7.85;2.85;;;12.40;99.90;;;;;;5030443;28;20091;-76
2023/02/19 11:13:25;;;;;;;;;;;12.70;99.90;;;;;;5047193;28;20037;-75
2023/02/19 11:15:56;;;;;;;8.75;4.18;;;12.90;99.90;;;;;;5030055;28;19909;-75
2023/02/19 11:18:24;;;;;;;9.18;2.65;;;12.90;99.90;;;;;;5048051;28;20044;-75
2023/02/19 11:21:03;;;;;;;5.60;2.45;;;13.10;99.90;;;;;;5030278;28;20033;-76
2023/02/19 11:23:42;;;;;;;9.77;3.25;;;13.30;99.90;;;;;;5048194;28;20040;-76
2023/02/19 11:26:18;;;;;;;8.68;3.05;;;13.50;99.90;;;;;;5030348;28;20025;-75
2023/02/19 11:28:44;;;;;;;7.28;3.53;;;13.50;99.90;;;;;;5030356;28;20025;-76
2023/02/19 11:31:18;;;;;;;;;;;13.50;99.90;;;;;;5048531;28;20037;-75
2023/02/19 11:33:55;;;;;;;7.28;3.20;;;13.40;99.90;;;;;;5047839;28;20341;-75
2023/02/19 11:36:32;;;;;;;15.38;6.15;;;13.10;99.90;;;;;;5047884;28;20059;-75
2023/02/19 11:39:06;;;;;;;13.27;5.38;;;12.90;99.90;;;;;;5048039;28;20493;-76
2023/02/19 11:41:54;;;;;;;15.30;5.15;;;12.80;99.90;;;;;;5046791;28;20576;-75
2023/02/19 11:44:50;;;;;;;16.40;4.28;;;12.70;99.90;;;;;;5046265;28;20170;-75
2023/02/19 11:47:53;;;;;;;7.82;3.38;;;12.50;99.90;;;;;;5030099;28;20112;-75
2023/02/19 11:50:41;;;;;;;14.32;3.22;;;12.50;99.90;;;;;;5047855;28;20021;-75
2023/02/19 11:53:27;;;;;;;19.30;4.25;;;12.30;99.90;;;;;;5048217;28;20021;-75
2023/02/19 11:56:17;;;;;;;6.03;1.90;;;12.30;99.90;;;;;;5048004;28;20504;-75
2023/02/19 11:58:55;;;;;;;12.15;4.07;;;12.20;99.90;;;;;;5029956;28;20037;-75
2023/02/19 12:01:37;;;;;;;12.15;2.65;;;12.10;99.90;;;;;;5029931;28;20562;-76
2023/02/19 12:04:36;;;;;;;5.82;1.90;;;12.00;99.90;;;;;;5047824;28;20031;-75
2023/02/19 12:07:34;;;;;;;10.02;3.30;;;12.00;99.90;;;;;;5039340;28;20114;-75
2023/02/19 12:10:09;;;;;;;9.75;2.83;;;11.80;99.90;;;;;;5029763;28;20035;-75
2023/02/19 12:12:44;;;;;;;9.05;3.20;;;11.80;99.90;;;;;;5047004;28;20167;-76
2023/02/19 12:15:34;;;;;;;12.35;3.47;;;11.60;99.90;;;;;;5050990;28;20021;-75
2023/02/19 12:18:26;;;;;;;13.65;4.20;;;11.60;99.90;;;;;;5033522;28;20033;-74
2023/02/19 12:21:13;;;;;;;21.13;6.82;;;11.60;99.90;;;;;;5051562;28;20025;-75
2023/02/19 12:23:42;;;;;;;13.68;4.28;;;11.80;99.90;;;;;;5033530;28;20055;-74
2023/02/19 12:26:35;;;;;;;13.82;6.45;;;12.10;99.90;;;;;;5032711;28;20080;-75
2023/02/19 12:29:45;;;;;;;11.95;4.47;;;12.20;99.90;;;;;;5050261;28;20029;-76
2023/02/19 12:32:17;;;;;;;13.60;5.20;;;12.20;99.90;;;;;;4988537;28;20054;-75
2023/02/19 12:35:04;;;;;;;19.42;7.80;;;12.40;99.90;;;;;;4964718;28;20053;-76
2023/02/19 12:37:51;;;;;;;21.50;7.07;;;12.60;99.90;;;;;;5011212;28;20576;-75
2023/02/19 12:41:12;;;;;;;19.38;7.72;;;12.80;99.90;;;;;;5012497;28;20033;-75
2023/02/19 12:43:44;;;;;;;13.82;6.93;;;13.10;99.90;;;;;;4969638;28;20443;-74
2023/02/19 12:46:20;;;;;;;17.42;6.13;;;13.00;99.90;;;;;;4969514;28;20806;-76
2023/02/19 12:49:23;;;;;;;11.95;5.13;;;13.00;99.90;;;;;;4996495;28;20552;-74
2023/02/19 12:51:56;;;;;;;11.30;3.78;;;12.90;99.90;;;;;;5003438;28;20095;-76
2023/02/19 12:54:29;;;;;;;15.35;4.50;;;12.80;99.90;;;;;;5012827;28;20040;-75
2023/02/19 12:57:00;;;;;;;19.65;5.13;;;12.80;99.90;;;;;;5030316;28;20048;-76
2023/02/19 12:59:36;;;;;;;10.43;3.03;;;12.70;99.90;;;;;;5030951;28;20071;-76
2023/02/19 13:02:18;;;;;;;7.07;2.05;;;12.80;99.90;;;;;;5030521;28;20516;-74
2023/02/19 13:05:09;;;;;;;2.85;1.17;;;13.10;99.90;;;;;;5012798;28;20029;-75
2023/02/19 13:07:41;;;;;;;9.88;2.45;;;13.10;99.90;;;;;;5030871;28;20044;-76
2023/02/19 13:10:10;;;;;;;8.40;2.38;;;13.30;99.90;;;;;;5030670;28;20026;-75
2023/02/19 13:12:43;;;;;;;4.85;1.27;;;13.50;99.90;;;;;;5030477;28;20083;-75
2023/02/19 13:15:20;;;;;;;6.35;1.50;;;13.60;99.90;;;;;;5030049;28;20036;-75
2023/02/19 13:17:55;;;;;;;6.78;1.55;;;13.70;99.90;;;;;;5012312;28;20048;-76
2023/02/19 13:20:28;;;;;;;15.47;3.73;;;13.80;99.90;;;;;;5012337;28;20040;-76
2023/02/19 13:26:23;;;;;;;6.40;1.52;;;14.00;99.90;;;;;;5029290;28;20493;-74
2023/02/19 13:29:10;;;;;;;14.90;2.88;;;14.00;99.90;;;;;;5030112;28;20025;-76
2023/02/19 13:31:38;;;;;;;7.75;1.75;;;13.80;99.90;;;;;;5012559;28;20036;-75
2023/02/19 13:34:32;;;;;;;10.45;2.15;;;13.90;99.90;;;;;;5022243;28;20029;-75
2023/02/19 13:36:59;;;;;;;9.43;2.60;;;14.10;99.90;;;;;;5066671;28;20029;-75
2023/02/19 13:39:24;;;;;;;5.80;1.20;;;14.20;99.90;;;;;;5049911;28;20084;-74
2023/02/19 13:41:52;;;;;;;;;;;14.30;99.90;;;;;;5035851;28;20037;-76
2023/02/19 13:44:20;;;;;;;5.68;1.48;;;14.30;99.90;;;;;;5051167;28;19991;-76
2023/02/19 13:46:48;;;;;;;6.60;1.58;;;14.30;99.90;;;;;;5033470;28;20116;-75
2023/02/19 13:49:32;;;;;;;5.15;1.38;;;14.10;99.90;;;;;;5050148;28;20123;-74
2023/02/19 13:52:23;;;;;;;3.53;1.02;;;13.90;99.90;;;;;;5031915;28;20191;-74
2023/02/19 13:54:50;;;;;;;7.68;1.63;;;13.70;99.90;;;;;;5031398;28;20036;-76
2023/02/19 13:57:22;;;;;;;3.80;1.17;;;13.50;99.90;;;;;;5049800;28;20029;-76
2023/02/19 13:59:49;;;;;;;9.43;1.83;;;13.30;99.90;;;;;;5049464;28;20025;-75
2023/02/19 14:02:34;;;;;;;4.85;1.30;;;13.10;99.90;;;;;;5048131;28;20029;-75